Time;durP1;ratioP1;P1;durP2;ratioP2;P2;SDS_P1;SDS_P2;PMS_P1;PMS_P2;Temp;Humidity;BMP_temperature;BMP_pressure;BME280_temperature;BME280_humidity;BME280_pressure;Samples;Min_cycle;Max_cycle;Signal;HPM_P1;HPM_P2
2023/11/04 00:00:54;;;;;;;17.83;9.77;;;;;;;;;;5028487;28;20059;-83
2023/11/04 00:03:22;;;;;;;11.02;8.82;;;;;;;;;;5020506;28;20064;-84
2023/11/04 00:05:50;;;;;;;16.27;10.23;;;;;;;;;;5003493;28;20076;-84
2023/11/04 00:08:20;;;;;;;11.52;9.05;;;;;;;;;;5001167;28;20128;-83
2023/11/04 00:10:49;;;;;;;11.45;9.82;;;;;;;;;;5003841;28;20045;-83
2023/11/04 00:13:19;;;;;;;12.38;9.80;;;;;;;;;;5030922;28;20052;-83
2023/11/04 00:15:46;;;;;;;9.55;8.38;;;;;;;;;;5019630;28;20589;-83
2023/11/04 00:18:14;;;;;;;10.20;6.47;;;;;;;;;;5030073;28;20514;-84
2023/11/04 00:20:42;;;;;;;6.72;5.43;;;;;;;;;;5042875;28;20053;-84
2023/11/04 00:23:18;;;;;;;5.35;4.82;;;;;;;;;;5035101;28;20057;-84
2023/11/04 00:25:45;;;;;;;4.70;3.70;;;;;;;;;;5016297;28;20068;-84
2023/11/04 00:28:15;;;;;;;4.13;3.03;;;;;;;;;;5016767;28;20060;-83
2023/11/04 00:30:42;;;;;;;3.70;2.53;;;;;;;;;;5017448;28;20049;-83
2023/11/04 00:33:31;;;;;;;3.55;2.25;;;;;;;;;;5029453;28;20061;-84
2023/11/04 00:36:22;;;;;;;2.50;2.13;;;;;;;;;;5019454;28;20053;-84
2023/11/04 00:39:09;;;;;;;2.78;2.22;;;;;;;;;;5009131;28;20053;-84
2023/11/04 00:41:57;;;;;;;3.53;1.92;;;;;;;;;;5022464;28;20412;-84
2023/11/04 00:44:44;;;;;;;2.13;1.80;;;;;;;;;;5009220;28;20116;-84
2023/11/04 00:47:34;;;;;;;2.60;1.80;;;;;;;;;;5014975;28;20425;-84
2023/11/04 00:50:21;;;;;;;1.70;1.60;;;;;;;;;;5005712;28;20069;-84
2023/11/04 00:53:12;;;;;;;2.35;2.03;;;;;;;;;;5011896;28;20044;-83
2023/11/04 00:55:59;;;;;;;2.00;1.80;;;;;;;;;;5017868;28;20120;-84
2023/11/04 00:58:46;;;;;;;1.92;1.67;;;;;;;;;;5004456;28;20060;-84
2023/11/04 01:01:33;;;;;;;2.42;1.85;;;;;;;;;;5014170;28;20491;-84
2023/11/04 01:04:20;;;;;;;4.43;2.25;;;;;;;;;;5015649;28;20065;-84
2023/11/04 01:07:08;;;;;;;2.25;1.67;;;;;;;;;;4998742;28;20049;-84
2023/11/04 01:09:56;;;;;;;2.45;1.65;;;;;;;;;;5022609;28;20056;-84
2023/11/04 01:12:43;;;;;;;3.60;2.70;;;;;;;;;;5020306;28;20053;-84
2023/11/04 01:15:31;;;;;;;2.55;1.50;;;;;;;;;;5017516;28;20068;-84
2023/11/04 01:18:19;;;;;;;2.53;1.77;;;;;;;;;;5002396;28;20050;-84
2023/11/04 01:21:06;;;;;;;2.60;1.60;;;;;;;;;;5018472;28;20057;-84
2023/11/04 01:23:54;;;;;;;1.95;1.60;;;;;;;;;;5018811;28;20524;-84
2023/11/04 01:26:42;;;;;;;3.45;2.05;;;;;;;;;;5019333;28;20056;-84
2023/11/04 01:29:30;;;;;;;5.40;1.83;;;;;;;;;;5015702;28;20064;-84
2023/11/04 01:32:17;;;;;;;1.90;1.50;;;;;;;;;;5020031;28;20388;-84
2023/11/04 01:35:04;;;;;;;2.03;1.25;;;;;;;;;;5019758;28;20050;-84
2023/11/04 01:37:52;;;;;;;3.17;1.55;;;;;;;;;;5021531;28;20056;-84
2023/11/04 01:40:41;;;;;;;12.45;1.83;;;;;;;;;;5046036;22;20071;-83
2023/11/04 01:43:30;;;;;;;2.05;1.75;;;;;;;;;;5031373;28;20058;-83
2023/11/04 01:46:19;;;;;;;2.13;1.33;;;;;;;;;;5031160;28;20045;-83
2023/11/04 01:49:06;;;;;;;1.92;1.50;;;;;;;;;;5026196;28;20057;-82
2023/11/04 01:51:54;;;;;;;2.08;1.05;;;;;;;;;;5011423;28;20408;-82
2023/11/04 01:54:42;;;;;;;2.78;1.45;;;;;;;;;;5019519;28;20046;-82
2023/11/04 01:57:29;;;;;;;1.52;1.40;;;;;;;;;;5025500;28;20480;-82
2023/11/04 02:00:19;;;;;;;2.47;2.03;;;;;;;;;;5004406;28;20053;-82
2023/11/04 02:03:06;;;;;;;1.52;1.38;;;;;;;;;;5011373;28;20053;-82
2023/11/04 02:05:53;;;;;;;1.35;0.98;;;;;;;;;;5029522;28;20053;-82
2023/11/04 02:08:41;;;;;;;1.70;1.00;;;;;;;;;;5001059;28;20495;-82
2023/11/04 02:11:28;;;;;;;3.42;1.48;;;;;;;;;;5012702;28;20038;-82
2023/11/04 02:14:16;;;;;;;1.63;1.50;;;;;;;;;;5003670;28;20053;-82
2023/11/04 02:17:05;;;;;;;2.75;1.27;;;;;;;;;;5031861;28;20069;-82
2023/11/04 02:19:53;;;;;;;2.45;1.30;;;;;;;;;;4993562;28;20053;-82
2023/11/04 02:22:42;;;;;;;2.55;1.40;;;;;;;;;;5031951;28;20252;-82
2023/11/04 02:25:32;;;;;;;3.13;1.10;;;;;;;;;;5010816;28;20525;-82
2023/11/04 02:28:19;;;;;;;2.35;1.30;;;;;;;;;;5004303;28;20041;-82
2023/11/04 02:31:06;;;;;;;2.60;1.70;;;;;;;;;;5013232;28;20045;-82
2023/11/04 02:33:53;;;;;;;1.88;1.77;;;;;;;;;;5018528;28;20120;-82
2023/11/04 02:36:41;;;;;;;1.95;1.35;;;;;;;;;;5009521;28;20050;-82
2023/11/04 02:39:29;;;;;;;2.17;1.42;;;;;;;;;;5019029;28;20659;-82
2023/11/04 02:42:17;;;;;;;2.72;1.10;;;;;;;;;;5004910;28;20041;-82
2023/11/04 02:45:04;;;;;;;2.78;1.08;;;;;;;;;;5018166;28;20707;-82
2023/11/04 02:47:51;;;;;;;1.45;1.20;;;;;;;;;;5015653;28;20050;-82
2023/11/04 02:50:39;;;;;;;2.65;1.20;;;;;;;;;;5008428;28;20338;-82
2023/11/04 02:53:26;;;;;;;1.23;1.13;;;;;;;;;;5010092;28;20422;-82
2023/11/04 02:56:16;;;;;;;3.20;1.52;;;;;;;;;;5002637;28;20041;-82
2023/11/04 02:59:03;;;;;;;1.40;1.23;;;;;;;;;;5002516;28;20061;-82
2023/11/04 03:01:50;;;;;;;2.38;1.42;;;;;;;;;;5003935;28;20045;-82
2023/11/04 03:04:38;;;;;;;2.40;1.85;;;;;;;;;;5006718;28;20053;-82
2023/11/04 03:07:25;;;;;;;3.47;1.50;;;;;;;;;;5012416;28;20053;-82
2023/11/04 03:10:12;;;;;;;2.65;1.80;;;;;;;;;;5017982;28;20048;-82
2023/11/04 03:13:01;;;;;;;3.33;1.75;;;;;;;;;;5000371;28;20050;-82
2023/11/04 03:15:48;;;;;;;1.63;1.35;;;;;;;;;;4999394;28;20050;-82
2023/11/04 03:18:35;;;;;;;2.17;1.85;;;;;;;;;;5032423;28;20048;-82
2023/11/04 03:21:22;;;;;;;1.85;1.20;;;;;;;;;;5003685;28;20053;-82
2023/11/04 03:24:12;;;;;;;2.22;1.80;;;;;;;;;;5018380;28;20053;-82
2023/11/04 03:27:00;;;;;;;2.10;1.60;;;;;;;;;;5018045;28;20057;-82
2023/11/04 03:29:48;;;;;;;2.08;1.63;;;;;;;;;;5009831;28;20148;-83
2023/11/04 03:32:35;;;;;;;2.08;1.60;;;;;;;;;;4998326;28;20056;-82
2023/11/04 03:35:22;;;;;;;2.70;1.63;;;;;;;;;;5004463;28;20049;-82
2023/11/04 03:38:10;;;;;;;2.90;1.55;;;;;;;;;;5009550;28;20061;-82
2023/11/04 03:40:57;;;;;;;3.58;2.00;;;;;;;;;;5024604;28;20041;-82
2023/11/04 03:43:44;;;;;;;2.42;1.52;;;;;;;;;;5005825;28;20049;-82
2023/11/04 03:46:33;;;;;;;3.13;1.65;;;;;;;;;;5024752;28;20050;-82
2023/11/04 03:49:20;;;;;;;3.15;1.55;;;;;;;;;;5006680;28;20060;-82
2023/11/04 03:52:09;;;;;;;2.58;1.85;;;;;;;;;;5014468;28;20438;-82
2023/11/04 03:54:56;;;;;;;2.45;1.23;;;;;;;;;;5000421;28;20061;-82
2023/11/04 03:57:43;;;;;;;1.75;1.65;;;;;;;;;;5017515;28;20401;-82
2023/11/04 04:00:31;;;;;;;1.95;1.85;;;;;;;;;;4999803;28;20061;-82
2023/11/04 04:03:20;;;;;;;4.57;3.05;;;;;;;;;;5016439;28;20052;-82
2023/11/04 04:06:07;;;;;;;7.57;2.10;;;;;;;;;;5006691;28;20133;-82
2023/11/04 04:08:54;;;;;;;2.72;1.38;;;;;;;;;;5022276;28;20045;-82
2023/11/04 04:11:42;;;;;;;1.63;0.90;;;;;;;;;;5027828;28;20509;-82
2023/11/04 04:14:29;;;;;;;2.10;1.27;;;;;;;;;;5007989;28;20041;-82
2023/11/04 04:17:17;;;;;;;3.28;1.58;;;;;;;;;;5016713;28;20407;-82
2023/11/04 04:20:07;;;;;;;2.72;1.38;;;;;;;;;;5030076;28;20056;-82
2023/11/04 04:22:54;;;;;;;2.28;1.33;;;;;;;;;;4999927;28;20529;-82
2023/11/04 04:25:41;;;;;;;2.58;1.45;;;;;;;;;;5025046;28;20045;-82
2023/11/04 04:28:28;;;;;;;7.13;1.45;;;;;;;;;;4999723;28;20057;-82
2023/11/04 04:31:16;;;;;;;1.48;1.20;;;;;;;;;;5022098;28;20546;-82
2023/11/04 04:34:03;;;;;;;1.67;1.35;;;;;;;;;;5014619;28;20049;-82
2023/11/04 04:36:51;;;;;;;1.10;1.00;;;;;;;;;;5010768;28;20056;-82
2023/11/04 04:39:39;;;;;;;4.55;1.60;;;;;;;;;;5002681;28;20404;-82
2023/11/04 04:42:26;;;;;;;3.15;1.20;;;;;;;;;;5002885;28;20053;-82
2023/11/04 04:45:13;;;;;;;2.03;1.08;;;;;;;;;;5019801;28;20068;-82
2023/11/04 04:48:00;;;;;;;1.88;1.33;;;;;;;;;;4999545;28;20057;-82
2023/11/04 04:50:47;;;;;;;2.38;1.40;;;;;;;;;;5026640;28;20060;-82
2023/11/04 04:53:36;;;;;;;1.50;1.40;;;;;;;;;;5002647;28;20060;-82
2023/11/04 04:56:49;;;;;;;2.57;1.77;;;;;;;;;;5032351;28;20052;-82
2023/11/04 04:59:36;;;;;;;2.58;1.65;;;;;;;;;;5008898;28;20053;-82
2023/11/04 05:02:23;;;;;;;2.45;1.52;;;;;;;;;;5003351;28;20403;-82
2023/11/04 05:05:11;;;;;;;2.75;1.63;;;;;;;;;;5019830;28;20056;-82
2023/11/04 05:07:58;;;;;;;2.47;1.42;;;;;;;;;;5014436;28;20060;-82
2023/11/04 05:10:46;;;;;;;2.15;1.73;;;;;;;;;;5006428;28;20507;-82
2023/11/04 05:13:33;;;;;;;2.63;1.55;;;;;;;;;;5005390;28;20042;-82
2023/11/04 05:16:21;;;;;;;2.15;1.23;;;;;;;;;;5021319;28;20053;-82
2023/11/04 05:19:08;;;;;;;1.65;1.50;;;;;;;;;;5023730;28;20072;-82
2023/11/04 05:21:55;;;;;;;2.47;1.45;;;;;;;;;;4999546;28;20048;-82
2023/11/04 05:24:43;;;;;;;1.60;1.30;;;;;;;;;;5008246;28;20499;-82
2023/11/04 05:27:31;;;;;;;1.83;1.33;;;;;;;;;;5022581;28;20049;-82
2023/11/04 05:30:19;;;;;;;1.52;1.10;;;;;;;;;;5022349;28;20411;-82
2023/11/04 05:33:06;;;;;;;1.17;1.05;;;;;;;;;;5004366;28;20064;-82
2023/11/04 05:35:53;;;;;;;1.48;1.33;;;;;;;;;;5011456;28;20048;-82
2023/11/04 05:38:41;;;;;;;1.63;1.20;;;;;;;;;;5016362;28;20072;-82
2023/11/04 05:41:28;;;;;;;3.80;1.92;;;;;;;;;;5029873;28;20415;-82
2023/11/04 05:44:16;;;;;;;3.33;1.50;;;;;;;;;;5018542;28;20050;-82
2023/11/04 05:47:04;;;;;;;5.82;1.60;;;;;;;;;;5024111;28;20111;-82
2023/11/04 05:49:51;;;;;;;2.30;1.92;;;;;;;;;;5021586;28;20053;-82
2023/11/04 05:52:41;;;;;;;1.95;1.58;;;;;;;;;;5014819;28;20057;-82
2023/11/04 05:55:28;;;;;;;2.08;1.30;;;;;;;;;;5029371;28;20072;-82
2023/11/04 05:58:15;;;;;;;2.25;2.05;;;;;;;;;;5015311;28;20049;-82
2023/11/04 06:01:05;;;;;;;2.20;2.00;;;;;;;;;;5029616;28;20061;-82
2023/11/04 06:03:52;;;;;;;2.20;1.48;;;;;;;;;;5041589;28;20041;-82
2023/11/04 06:06:39;;;;;;;1.75;1.45;;;;;;;;;;5015550;28;20064;-82
2023/11/04 06:09:27;;;;;;;2.50;1.67;;;;;;;;;;5008858;28;20053;-82
2023/11/04 06:12:16;;;;;;;3.58;1.42;;;;;;;;;;5002167;28;20053;-82
2023/11/04 06:15:04;;;;;;;3.80;1.40;;;;;;;;;;5003002;28;20056;-82
2023/11/04 06:17:52;;;;;;;2.63;1.48;;;;;;;;;;5029437;28;20057;-82
2023/11/04 06:20:39;;;;;;;5.65;2.17;;;;;;;;;;5005156;28;20072;-82
2023/11/04 06:23:27;;;;;;;2.15;1.65;;;;;;;;;;5016189;28;20059;-82
2023/11/04 06:26:22;;;;;;;2.45;1.40;;;;;;;;;;5017213;28;20084;-82
2023/11/04 06:29:09;;;;;;;1.80;1.63;;;;;;;;;;5023042;28;20325;-82
2023/11/04 06:31:56;;;;;;;2.58;1.65;;;;;;;;;;5019033;28;20072;-82
2023/11/04 06:34:45;;;;;;;2.58;2.03;;;;;;;;;;5026054;28;20045;-82
2023/11/04 06:37:32;;;;;;;3.40;1.98;;;;;;;;;;5010525;28;20049;-82
2023/11/04 06:40:19;;;;;;;5.43;2.13;;;;;;;;;;5031033;28;20069;-82
2023/11/04 06:43:07;;;;;;;5.78;2.33;;;;;;;;;;5026686;28;20053;-83
2023/11/04 06:45:54;;;;;;;3.17;1.92;;;;;;;;;;5008101;28;20054;-82
2023/11/04 07:17:19;;;;;;;2.88;2.00;;;;;;;;;;5112375;22;20409;-83
2023/11/04 07:40:55;;;;;;;3.80;2.63;;;;;;;;;;5056380;22;20048;-81
2023/11/04 07:43:24;;;;;;;2.78;1.75;;;;;;;;;;5051435;28;20064;-81
2023/11/04 07:45:52;;;;;;;6.50;1.33;;;;;;;;;;5025366;28;20041;-81
2023/11/04 07:48:21;;;;;;;3.08;1.55;;;;;;;;;;5032546;28;20055;-81
2023/11/04 07:50:51;;;;;;;3.70;2.05;;;;;;;;;;5060081;28;20053;-81
2023/11/04 07:53:21;;;;;;;2.47;2.28;;;;;;;;;;5013595;28;20052;-81
2023/11/04 07:55:48;;;;;;;3.85;2.47;;;;;;;;;;5050922;28;20041;-81
2023/11/04 07:58:18;;;;;;;3.50;2.45;;;;;;;;;;5050640;28;20049;-82
2023/11/04 08:00:48;;;;;;;2.45;2.10;;;;;;;;;;5053056;28;20045;-81
2023/11/04 08:03:18;;;;;;;3.55;2.47;;;;;;;;;;5050859;28;20051;-81
2023/11/04 08:05:46;;;;;;;4.55;2.60;;;;;;;;;;5055813;28;20226;-81
2023/11/04 08:08:14;;;;;;;4.32;2.22;;;;;;;;;;5019206;28;20057;-81
2023/11/04 08:10:41;;;;;;;2.50;2.25;;;;;;;;;;5052039;28;20045;-81
2023/11/04 08:13:08;;;;;;;4.63;2.20;;;;;;;;;;5037250;28;20048;-81
2023/11/04 08:15:38;;;;;;;3.60;2.10;;;;;;;;;;5053958;28;20072;-81
2023/11/04 08:18:05;;;;;;;2.63;1.95;;;;;;;;;;5033642;28;20046;-82
2023/11/04 08:20:36;;;;;;;2.47;2.00;;;;;;;;;;5050291;28;20075;-82
2023/11/04 08:23:03;;;;;;;3.10;2.65;;;;;;;;;;5053992;28;20064;-82
2023/11/04 08:25:33;;;;;;;4.25;2.85;;;;;;;;;;5056224;28;20049;-82
2023/11/04 08:28:02;;;;;;;2.33;1.88;;;;;;;;;;5033681;28;20053;-82
2023/11/04 08:30:29;;;;;;;6.28;1.70;;;;;;;;;;5057377;28;20064;-82
2023/11/04 08:33:00;;;;;;;1.80;1.70;;;;;;;;;;5054520;28;20064;-81
2023/11/04 08:35:29;;;;;;;4.30;2.05;;;;;;;;;;5052101;28;20465;-82
2023/11/04 08:37:59;;;;;;;2.33;1.77;;;;;;;;;;5065021;28;20057;-82
2023/11/04 08:40:29;;;;;;;3.13;1.88;;;;;;;;;;5050964;28;20045;-82
2023/11/04 08:42:58;;;;;;;1.85;1.23;;;;;;;;;;5026872;28;20049;-82
2023/11/04 08:45:28;;;;;;;1.98;1.40;;;;;;;;;;5034742;28;20044;-82
2023/11/04 08:47:58;;;;;;;1.48;1.30;;;;;;;;;;5017229;28;20045;-82
2023/11/04 08:50:27;;;;;;;1.40;1.30;;;;;;;;;;5009505;28;21243;-82
2023/11/04 08:52:56;;;;;;;1.92;1.42;;;;;;;;;;5015303;28;20056;-82
2023/11/04 08:55:23;;;;;;;1.70;1.10;;;;;;;;;;5031628;28;20057;-82
2023/11/04 08:57:51;;;;;;;1.40;1.30;;;;;;;;;;5017417;28;20049;-82
2023/11/04 09:00:21;;;;;;;1.92;1.00;;;;;;;;;;5034753;28;20403;-82
2023/11/04 09:02:49;;;;;;;1.33;1.10;;;;;;;;;;5030610;28;20048;-82
2023/11/04 09:05:17;;;;;;;2.28;1.13;;;;;;;;;;5020272;28;20050;-82
2023/11/04 09:07:46;;;;;;;0.85;0.73;;;;;;;;;;5033821;28;20053;-82
2023/11/04 09:10:13;;;;;;;1.23;0.90;;;;;;;;;;5004996;28;20053;-83
2023/11/04 09:12:43;;;;;;;0.90;0.55;;;;;;;;;;5016495;28;20060;-81
2023/11/04 09:15:11;;;;;;;1.33;0.93;;;;;;;;;;5028426;28;20056;-82
2023/11/04 09:17:41;;;;;;;1.77;0.65;;;;;;;;;;5017353;28;20053;-82
2023/11/04 09:20:09;;;;;;;1.60;0.82;;;;;;;;;;5029228;28;20057;-82
2023/11/04 09:22:37;;;;;;;2.03;1.25;;;;;;;;;;5030937;28;20053;-82
2023/11/04 09:25:10;;;;;;;1.17;1.00;;;;;;;;;;5029021;28;20057;-83
2023/11/04 09:27:39;;;;;;;1.40;1.17;;;;;;;;;;5032966;28;20050;-82
2023/11/04 09:30:10;;;;;;;0.90;0.85;;;;;;;;;;5014958;28;20072;-82
2023/11/04 09:32:37;;;;;;;1.05;0.90;;;;;;;;;;5032274;28;20053;-82
2023/11/04 09:35:05;;;;;;;1.38;0.93;;;;;;;;;;5012886;28;20064;-82
2023/11/04 09:37:34;;;;;;;2.33;0.68;;;;;;;;;;5013042;28;20056;-83
2023/11/04 09:40:03;;;;;;;1.42;0.73;;;;;;;;;;5015649;28;20065;-83
2023/11/04 09:42:34;;;;;;;4.03;0.80;;;;;;;;;;5036684;28;20052;-83
2023/11/04 09:45:03;;;;;;;0.85;0.70;;;;;;;;;;5017631;28;20049;-82
2023/11/04 09:47:35;;;;;;;2.55;1.08;;;;;;;;;;5021906;28;20068;-82
2023/11/04 09:50:07;;;;;;;2.10;0.85;;;;;;;;;;5040233;28;20056;-83
2023/11/04 09:52:35;;;;;;;1.40;1.00;;;;;;;;;;5039235;28;20049;-82
2023/11/04 09:55:06;;;;;;;0.80;0.73;;;;;;;;;;5022432;28;20053;-82
2023/11/04 09:57:36;;;;;;;1.42;1.05;;;;;;;;;;5037334;28;20483;-83
2023/11/04 10:00:08;;;;;;;1.63;0.90;;;;;;;;;;5059973;28;20056;-83
2023/11/04 10:02:41;;;;;;;2.05;1.20;;;;;;;;;;5023063;28;20056;-83
2023/11/04 10:05:09;;;;;;;1.08;0.90;;;;;;;;;;5035849;28;20509;-82
2023/11/04 10:07:37;;;;;;;3.00;1.42;;;;;;;;;;5037681;28;20063;-83
2023/11/04 10:10:10;;;;;;;1.30;1.02;;;;;;;;;;5039516;28;20064;-83
2023/11/04 10:12:42;;;;;;;1.75;1.55;;;;;;;;;;5036815;28;20072;-83
2023/11/04 10:15:10;;;;;;;1.65;1.52;;;;;;;;;;5020654;28;20057;-83
2023/11/04 10:17:39;;;;;;;1.08;0.80;;;;;;;;;;5022692;28;20056;-83
2023/11/04 10:20:11;;;;;;;0.90;0.70;;;;;;;;;;5053569;28;20059;-83
2023/11/04 10:22:41;;;;;;;1.85;1.20;;;;;;;;;;5056576;28;20059;-83
2023/11/04 10:25:11;;;;;;;2.38;1.20;;;;;;;;;;5016706;28;20404;-82
2023/11/04 10:27:42;;;;;;;1.75;1.00;;;;;;;;;;5051996;28;20418;-83
2023/11/04 10:30:11;;;;;;;1.67;0.95;;;;;;;;;;5033277;28;20075;-83
2023/11/04 10:32:40;;;;;;;1.40;0.90;;;;;;;;;;5031591;28;20047;-83
2023/11/04 10:35:11;;;;;;;0.80;0.73;;;;;;;;;;5017535;28;20057;-83
2023/11/04 10:37:47;;;;;;;1.10;0.98;;;;;;;;;;5024286;28;20056;-83
2023/11/04 10:40:14;;;;;;;0.95;0.75;;;;;;;;;;5016397;28;20060;-83
2023/11/04 10:42:48;;;;;;;2.33;0.80;;;;;;;;;;5035067;28;20049;-83
2023/11/04 10:45:24;;;;;;;0.80;0.70;;;;;;;;;;5028488;28;20059;-83
2023/11/04 10:47:58;;;;;;;0.80;0.50;;;;;;;;;;5035987;28;20045;-83
2023/11/04 10:50:27;;;;;;;1.05;0.75;;;;;;;;;;5034201;28;20064;-83
2023/11/04 10:53:01;;;;;;;1.90;0.98;;;;;;;;;;5035962;28;20056;-83
2023/11/04 10:55:34;;;;;;;2.65;0.77;;;;;;;;;;5044658;28;20052;-83
2023/11/04 10:58:07;;;;;;;0.60;0.55;;;;;;;;;;5053576;28;20071;-83
2023/11/04 11:00:36;;;;;;;1.73;0.95;;;;;;;;;;5033937;28;20053;-84
2023/11/04 11:03:05;;;;;;;1.42;0.77;;;;;;;;;;5036125;28;20431;-83
2023/11/04 11:05:33;;;;;;;1.73;1.40;;;;;;;;;;5030065;28;20045;-83
2023/11/04 11:08:02;;;;;;;0.55;0.55;;;;;;;;;;5035237;28;20049;-83
2023/11/04 11:10:35;;;;;;;0.80;0.70;;;;;;;;;;5010901;28;20518;-83
2023/11/04 11:13:06;;;;;;;2.05;0.77;;;;;;;;;;5052659;28;20053;-83
2023/11/04 11:15:34;;;;;;;1.63;0.90;;;;;;;;;;5040266;28;20045;-83
2023/11/04 11:18:06;;;;;;;1.10;0.80;;;;;;;;;;5037058;28;20040;-84
2023/11/04 11:20:41;;;;;;;6.32;0.90;;;;;;;;;;5037218;28;20038;-84
2023/11/04 11:23:26;;;;;;;5.88;0.75;;;;;;;;;;5053478;28;20063;-84
2023/11/04 11:26:03;;;;;;;0.77;0.77;;;;;;;;;;5042089;28;20411;-84
2023/11/04 11:28:36;;;;;;;3.03;0.98;;;;;;;;;;5058823;28;20057;-84
2023/11/04 11:31:11;;;;;;;1.40;0.90;;;;;;;;;;5033371;28;20072;-84
2023/11/04 11:33:41;;;;;;;4.03;1.17;;;;;;;;;;5014274;28;20053;-84
2023/11/04 11:36:11;;;;;;;1.17;0.98;;;;;;;;;;5015281;28;20053;-84
2023/11/04 11:38:43;;;;;;;1.00;0.70;;;;;;;;;;5014932;28;20056;-84
2023/11/04 11:41:13;;;;;;;1.63;0.80;;;;;;;;;;5031431;28;20053;-83
2023/11/04 11:43:42;;;;;;;0.90;0.75;;;;;;;;;;5049709;28;20056;-83
2023/11/04 11:46:10;;;;;;;0.95;0.80;;;;;;;;;;5047220;28;20039;-83
2023/11/04 11:48:41;;;;;;;0.93;0.65;;;;;;;;;;5020994;28;20056;-83
2023/11/04 11:51:11;;;;;;;1.10;0.90;;;;;;;;;;5020981;28;20414;-83
2023/11/04 11:53:45;;;;;;;1.23;0.82;;;;;;;;;;5018077;28;20050;-83
2023/11/04 11:56:15;;;;;;;0.95;0.90;;;;;;;;;;5048818;28;20516;-84
2023/11/04 11:58:45;;;;;;;1.27;1.10;;;;;;;;;;5043418;28;20052;-83
2023/11/04 12:01:12;;;;;;;1.33;0.80;;;;;;;;;;5039574;28;20045;-83
2023/11/04 12:03:42;;;;;;;0.80;0.70;;;;;;;;;;5017307;28;20662;-83
2023/11/04 12:06:13;;;;;;;1.90;1.75;;;;;;;;;;5027599;28;20033;-83
2023/11/04 12:08:40;;;;;;;4.95;1.20;;;;;;;;;;5034691;28;20052;-83
2023/11/04 12:11:08;;;;;;;1.48;1.15;;;;;;;;;;5053453;28;20045;-82
2023/11/04 12:13:38;;;;;;;1.23;0.80;;;;;;;;;;5067302;28;20070;-83
2023/11/04 12:16:09;;;;;;;2.33;1.08;;;;;;;;;;5036873;28;20592;-83
2023/11/04 12:18:41;;;;;;;0.90;0.70;;;;;;;;;;5052436;28;20410;-83
2023/11/04 12:21:10;;;;;;;1.20;1.10;;;;;;;;;;5049015;28;20578;-84
2023/11/04 12:23:42;;;;;;;1.33;0.80;;;;;;;;;;5055908;28;20052;-83
2023/11/04 12:26:12;;;;;;;2.33;1.50;;;;;;;;;;5034752;28;20049;-83
2023/11/04 12:28:40;;;;;;;3.35;0.88;;;;;;;;;;5034011;28;20045;-83
2023/11/04 12:31:10;;;;;;;1.30;0.80;;;;;;;;;;5039518;28;20053;-82
2023/11/04 12:33:42;;;;;;;4.72;2.10;;;;;;;;;;5029962;28;20057;-82
2023/11/04 12:36:12;;;;;;;1.33;0.85;;;;;;;;;;5038079;28;20049;-82
2023/11/04 12:38:46;;;;;;;2.42;1.45;;;;;;;;;;5048215;28;20052;-82
2023/11/04 12:41:13;;;;;;;2.45;1.02;;;;;;;;;;5066298;28;20416;-82
2023/11/04 12:43:45;;;;;;;0.95;0.85;;;;;;;;;;5019005;28;20050;-82
2023/11/04 12:46:16;;;;;;;1.55;0.80;;;;;;;;;;5024533;28;20056;-83
2023/11/04 12:48:44;;;;;;;1.48;0.60;;;;;;;;;;5035074;28;20045;-82
2023/11/04 12:51:12;;;;;;;1.55;1.02;;;;;;;;;;5023915;28;20498;-82
2023/11/04 12:53:41;;;;;;;1.20;1.10;;;;;;;;;;5052980;28;21285;-82
2023/11/04 12:56:09;;;;;;;1.27;0.85;;;;;;;;;;5012054;28;20518;-82
2023/11/04 12:58:40;;;;;;;1.55;1.00;;;;;;;;;;5030196;28;20068;-84
2023/11/04 13:01:07;;;;;;;1.25;1.08;;;;;;;;;;5054913;28;20502;-83
2023/11/04 13:03:35;;;;;;;1.52;1.15;;;;;;;;;;5030060;28;20064;-82
2023/11/04 13:06:03;;;;;;;2.13;1.67;;;;;;;;;;5006443;28;20061;-83
2023/11/04 13:08:32;;;;;;;1.40;1.20;;;;;;;;;;5005208;28;20407;-83
2023/11/04 13:11:02;;;;;;;1.60;1.25;;;;;;;;;;5012173;28;20505;-82
2023/11/04 13:13:34;;;;;;;1.38;1.23;;;;;;;;;;5013571;28;20064;-83
2023/11/04 13:16:04;;;;;;;3.15;1.48;;;;;;;;;;5049970;28;20085;-82
2023/11/04 13:18:37;;;;;;;2.30;1.08;;;;;;;;;;5027044;28;20056;-82
2023/11/04 13:21:05;;;;;;;1.25;1.10;;;;;;;;;;5024447;28;20068;-82
2023/11/04 13:23:33;;;;;;;4.85;2.72;;;;;;;;;;5041008;28;20053;-82
2023/11/04 13:26:02;;;;;;;2.22;1.75;;;;;;;;;;5065479;28;20052;-81
2023/11/04 13:28:34;;;;;;;3.08;2.42;;;;;;;;;;5046990;28;20056;-82
2023/11/04 13:31:04;;;;;;;1.52;1.42;;;;;;;;;;5055901;28;20067;-82
2023/11/04 13:33:32;;;;;;;2.08;1.88;;;;;;;;;;5025241;28;20056;-82
2023/11/04 13:36:00;;;;;;;2.72;2.47;;;;;;;;;;5023620;28;20056;-82
2023/11/04 13:38:30;;;;;;;2.03;1.52;;;;;;;;;;5045995;28;20041;-82
2023/11/04 13:40:57;;;;;;;2.67;2.28;;;;;;;;;;5039793;28;20057;-82
2023/11/04 13:43:24;;;;;;;2.10;1.67;;;;;;;;;;5035958;22;20041;-79
2023/11/04 13:45:57;;;;;;;1.45;1.15;;;;;;;;;;5003813;28;20469;-79
2023/11/04 13:48:30;;;;;;;;;;;;;;;;;;5030234;28;20052;-79
2023/11/04 13:51:01;;;;;;;2.17;1.30;;;;;;;;;;5033336;28;19929;-80
2023/11/04 13:53:28;;;;;;;2.85;2.15;;;;;;;;;;5010867;28;20054;-80
2023/11/04 13:55:58;;;;;;;2.00;1.88;;;;;;;;;;5004063;28;20053;-80
2023/11/04 13:58:28;;;;;;;1.27;1.00;;;;;;;;;;5002278;28;20078;-79
2023/11/04 14:01:00;;;;;;;2.90;2.70;;;;;;;;;;5027795;28;20404;-80
2023/11/04 14:03:31;;;;;;;1.52;1.42;;;;;;;;;;5012780;28;20037;-81
2023/11/04 14:06:01;;;;;;;1.35;1.25;;;;;;;;;;5022787;28;20064;-82
2023/11/04 14:08:32;;;;;;;2.33;2.13;;;;;;;;;;5026699;28;20052;-82
2023/11/04 14:11:02;;;;;;;1.80;1.40;;;;;;;;;;5009365;28;20060;-82
2023/11/04 14:13:31;;;;;;;2.75;1.75;;;;;;;;;;5024590;28;20060;-82
2023/11/04 14:16:01;;;;;;;2.22;1.77;;;;;;;;;;5008785;28;20053;-82
2023/11/04 14:18:29;;;;;;;1.30;1.00;;;;;;;;;;5009614;28;20037;-82
2023/11/04 14:20:58;;;;;;;1.25;1.00;;;;;;;;;;5022181;28;20054;-82
2023/11/04 14:23:29;;;;;;;3.85;2.35;;;;;;;;;;5022329;28;20144;-82
2023/11/04 14:25:56;;;;;;;4.47;3.45;;;;;;;;;;5008282;28;20057;-83
2023/11/04 14:28:26;;;;;;;2.85;2.22;;;;;;;;;;5021974;28;20124;-82
2023/11/04 14:30:53;;;;;;;2.55;2.05;;;;;;;;;;5023288;28;20508;-82
2023/11/04 14:33:22;;;;;;;2.58;1.48;;;;;;;;;;5016134;28;20061;-82
2023/11/04 14:35:55;;;;;;;3.05;1.15;;;;;;;;;;5039301;28;20052;-82
2023/11/04 14:38:22;;;;;;;12.60;9.10;;;;;;;;;;5022457;28;20052;-82
2023/11/04 14:40:50;;;;;;;4.20;2.92;;;;;;;;;;5039916;28;20037;-82
2023/11/04 14:43:18;;;;;;;4.28;3.88;;;;;;;;;;4998778;28;20057;-82
2023/11/04 14:45:48;;;;;;;2.95;2.55;;;;;;;;;;5025649;28;20041;-82
2023/11/04 14:48:18;;;;;;;2.03;1.63;;;;;;;;;;5003832;28;20053;-82
2023/11/04 14:50:47;;;;;;;2.53;2.33;;;;;;;;;;5015888;28;20057;-83
2023/11/04 14:53:14;;;;;;;3.30;1.95;;;;;;;;;;5019348;28;20049;-82
2023/11/04 14:55:42;;;;;;;2.08;1.88;;;;;;;;;;5030416;28;20049;-82
2023/11/04 14:58:11;;;;;;;2.55;1.60;;;;;;;;;;5022714;28;20500;-82
2023/11/04 15:00:40;;;;;;;2.45;1.33;;;;;;;;;;5005801;28;20060;-82
2023/11/04 15:03:10;;;;;;;1.85;1.40;;;;;;;;;;5022583;28;20060;-82
2023/11/04 15:05:42;;;;;;;2.63;2.30;;;;;;;;;;5021683;28;20049;-82
2023/11/04 15:08:10;;;;;;;2.40;1.20;;;;;;;;;;5005185;28;20045;-82
2023/11/04 15:10:39;;;;;;;2.08;1.40;;;;;;;;;;5002735;28;20050;-82
2023/11/04 15:13:11;;;;;;;2.72;1.88;;;;;;;;;;5016382;28;20056;-82
2023/11/04 15:15:41;;;;;;;2.90;1.63;;;;;;;;;;5019072;28;20045;-82
2023/11/04 15:18:09;;;;;;;2.33;1.33;;;;;;;;;;4995717;28;20054;-82
2023/11/04 15:20:42;;;;;;;1.58;0.95;;;;;;;;;;5010531;28;20049;-81
2023/11/04 15:23:09;;;;;;;1.02;0.82;;;;;;;;;;4996834;28;20503;-81
2023/11/04 15:25:36;;;;;;;3.67;2.17;;;;;;;;;;5017206;28;20071;-82
2023/11/04 15:28:06;;;;;;;2.88;1.60;;;;;;;;;;5020197;28;20050;-82
2023/11/04 15:30:37;;;;;;;2.05;1.25;;;;;;;;;;5002145;28;20046;-82
2023/11/04 15:33:06;;;;;;;1.88;1.25;;;;;;;;;;5019649;28;20060;-82
2023/11/04 15:35:34;;;;;;;2.05;1.45;;;;;;;;;;5018151;28;20049;-82
2023/11/04 15:38:02;;;;;;;2.85;1.80;;;;;;;;;;5024583;28;20518;-82
2023/11/04 15:40:32;;;;;;;4.40;2.55;;;;;;;;;;5022634;28;20117;-82
2023/11/04 15:43:01;;;;;;;4.20;2.80;;;;;;;;;;5004397;28;20448;-82
2023/11/04 15:45:31;;;;;;;4.00;3.03;;;;;;;;;;5025623;28;20062;-82
2023/11/04 15:48:00;;;;;;;3.78;2.80;;;;;;;;;;4985640;28;20046;-82
2023/11/04 15:50:29;;;;;;;3.78;2.35;;;;;;;;;;4999344;28;20049;-83
2023/11/04 15:52:57;;;;;;;2.38;1.92;;;;;;;;;;5029688;28;20045;-83
2023/11/04 15:55:26;;;;;;;5.25;3.50;;;;;;;;;;5015296;28;20046;-83
2023/11/04 15:57:56;;;;;;;3.38;2.10;;;;;;;;;;5028995;28;20045;-83
2023/11/04 16:00:23;;;;;;;1.50;1.05;;;;;;;;;;5016335;28;20064;-83
2023/11/04 16:02:50;;;;;;;1.02;0.93;;;;;;;;;;5000845;28;20041;-83
2023/11/04 16:05:22;;;;;;;1.02;0.70;;;;;;;;;;5018402;28;20057;-83
2023/11/04 16:07:51;;;;;;;2.45;1.13;;;;;;;;;;5014078;28;20080;-82
2023/11/04 16:10:23;;;;;;;0.88;0.77;;;;;;;;;;5030238;28;20483;-83
2023/11/04 16:12:53;;;;;;;0.80;0.80;;;;;;;;;;5014628;28;20060;-83
2023/11/04 16:15:20;;;;;;;2.50;1.20;;;;;;;;;;5002618;28;20049;-83
2023/11/04 16:17:47;;;;;;;4.90;1.65;;;;;;;;;;5018211;28;20057;-83
2023/11/04 16:20:17;;;;;;;1.13;0.93;;;;;;;;;;5036418;28;20060;-83
2023/11/04 16:22:46;;;;;;;1.73;1.45;;;;;;;;;;5014364;28;20052;-83
2023/11/04 16:25:14;;;;;;;1.85;1.27;;;;;;;;;;5036945;28;20053;-83
2023/11/04 16:27:44;;;;;;;2.28;1.30;;;;;;;;;;5026788;28;20455;-83